sensor_id;sensor_type;location;lat;lon;timestamp;P1;durP1;ratioP1;P2;durP2;ratioP2
5219;SDS011;2629;50.768;7.308;2022-07-23T00:01:13;16.13;;;11.80;;
5219;SDS011;2629;50.768;7.308;2022-07-23T00:03:42;18.03;;;13.03;;
5219;SDS011;2629;50.768;7.308;2022-07-23T00:06:13;12.80;;;9.80;;
5219;SDS011;2629;50.768;7.308;2022-07-23T00:08:41;16.97;;;11.40;;
5219;SDS011;2629;50.768;7.308;2022-07-23T00:11:09;16.40;;;11.53;;
5219;SDS011;2629;50.768;7.308;2022-07-23T00:13:37;12.83;;;10.60;;
5219;SDS011;2629;50.768;7.308;2022-07-23T00:16:05;13.97;;;10.30;;
5219;SDS011;2629;50.768;7.308;2022-07-23T00:18:34;15.20;;;10.90;;
5219;SDS011;2629;50.768;7.308;2022-07-23T00:21:02;16.40;;;11.60;;
5219;SDS011;2629;50.768;7.308;2022-07-23T00:23:32;14.40;;;10.77;;
5219;SDS011;2629;50.768;7.308;2022-07-23T00:26:01;16.03;;;11.03;;
5219;SDS011;2629;50.768;7.308;2022-07-23T00:28:29;17.03;;;11.40;;
5219;SDS011;2629;50.768;7.308;2022-07-23T00:30:57;15.77;;;10.83;;
5219;SDS011;2629;50.768;7.308;2022-07-23T00:33:25;15.47;;;10.80;;
5219;SDS011;2629;50.768;7.308;2022-07-23T00:35:53;19.70;;;12.83;;
5219;SDS011;2629;50.768;7.308;2022-07-23T00:38:21;14.93;;;10.70;;
5219;SDS011;2629;50.768;7.308;2022-07-23T00:40:51;12.30;;;10.40;;
5219;SDS011;2629;50.768;7.308;2022-07-23T00:43:19;16.30;;;10.93;;
5219;SDS011;2629;50.768;7.308;2022-07-23T00:45:47;16.20;;;11.23;;
5219;SDS011;2629;50.768;7.308;2022-07-23T00:48:15;15.43;;;11.23;;
5219;SDS011;2629;50.768;7.308;2022-07-23T00:50:44;20.10;;;11.80;;
5219;SDS011;2629;50.768;7.308;2022-07-23T00:53:12;13.70;;;11.57;;
5219;SDS011;2629;50.768;7.308;2022-07-23T00:55:40;15.23;;;11.23;;
5219;SDS011;2629;50.768;7.308;2022-07-23T00:58:11;13.47;;;10.17;;
5219;SDS011;2629;50.768;7.308;2022-07-23T01:00:40;18.13;;;11.83;;
5219;SDS011;2629;50.768;7.308;2022-07-23T01:03:08;17.50;;;12.50;;
5219;SDS011;2629;50.768;7.308;2022-07-23T01:05:36;18.20;;;11.70;;
5219;SDS011;2629;50.768;7.308;2022-07-23T01:08:05;17.43;;;10.57;;
5219;SDS011;2629;50.768;7.308;2022-07-23T01:10:33;14.20;;;12.37;;
5219;SDS011;2629;50.768;7.308;2022-07-23T01:13:02;17.43;;;12.67;;
5219;SDS011;2629;50.768;7.308;2022-07-23T01:15:34;15.00;;;11.70;;
5219;SDS011;2629;50.768;7.308;2022-07-23T01:18:03;17.03;;;11.60;;
5219;SDS011;2629;50.768;7.308;2022-07-23T01:20:33;19.17;;;12.07;;
5219;SDS011;2629;50.768;7.308;2022-07-23T01:23:03;17.33;;;12.37;;
5219;SDS011;2629;50.768;7.308;2022-07-23T01:25:32;16.70;;;11.90;;
5219;SDS011;2629;50.768;7.308;2022-07-23T01:28:02;12.87;;;11.40;;
5219;SDS011;2629;50.768;7.308;2022-07-23T01:30:30;16.13;;;12.00;;
5219;SDS011;2629;50.768;7.308;2022-07-23T01:33:01;17.30;;;11.60;;
5219;SDS011;2629;50.768;7.308;2022-07-23T01:35:29;14.50;;;10.80;;
5219;SDS011;2629;50.768;7.308;2022-07-23T01:38:01;18.53;;;12.77;;
5219;SDS011;2629;50.768;7.308;2022-07-23T01:40:31;18.93;;;13.40;;
5219;SDS011;2629;50.768;7.308;2022-07-23T01:42:59;16.97;;;12.53;;
5219;SDS011;2629;50.768;7.308;2022-07-23T01:45:29;16.83;;;12.80;;
5219;SDS011;2629;50.768;7.308;2022-07-23T01:47:58;17.07;;;13.20;;
5219;SDS011;2629;50.768;7.308;2022-07-23T01:50:26;17.57;;;12.57;;
5219;SDS011;2629;50.768;7.308;2022-07-23T01:53:11;19.30;;;13.87;;
5219;SDS011;2629;50.768;7.308;2022-07-23T01:55:40;19.60;;;14.40;;
5219;SDS011;2629;50.768;7.308;2022-07-23T01:58:09;17.73;;;13.20;;
5219;SDS011;2629;50.768;7.308;2022-07-23T02:00:38;17.77;;;12.97;;
5219;SDS011;2629;50.768;7.308;2022-07-23T02:03:06;15.07;;;12.27;;
5219;SDS011;2629;50.768;7.308;2022-07-23T02:05:36;15.20;;;12.47;;
5219;SDS011;2629;50.768;7.308;2022-07-23T02:08:04;15.50;;;12.40;;
5219;SDS011;2629;50.768;7.308;2022-07-23T02:10:35;15.60;;;11.73;;
5219;SDS011;2629;50.768;7.308;2022-07-23T02:13:05;15.97;;;11.50;;
5219;SDS011;2629;50.768;7.308;2022-07-23T02:15:33;17.13;;;12.40;;
5219;SDS011;2629;50.768;7.308;2022-07-23T02:18:02;18.03;;;13.63;;
5219;SDS011;2629;50.768;7.308;2022-07-23T02:20:31;18.60;;;12.50;;
5219;SDS011;2629;50.768;7.308;2022-07-23T02:22:59;21.03;;;14.60;;
5219;SDS011;2629;50.768;7.308;2022-07-23T02:25:27;18.43;;;13.53;;
5219;SDS011;2629;50.768;7.308;2022-07-23T02:28:00;23.47;;;14.43;;
5219;SDS011;2629;50.768;7.308;2022-07-23T02:30:29;20.53;;;14.07;;
5219;SDS011;2629;50.768;7.308;2022-07-23T02:32:58;20.10;;;14.43;;
5219;SDS011;2629;50.768;7.308;2022-07-23T02:35:26;20.57;;;14.03;;
5219;SDS011;2629;50.768;7.308;2022-07-23T02:37:58;20.17;;;14.20;;
5219;SDS011;2629;50.768;7.308;2022-07-23T02:40:27;19.50;;;13.90;;
5219;SDS011;2629;50.768;7.308;2022-07-23T02:42:55;20.30;;;14.90;;
5219;SDS011;2629;50.768;7.308;2022-07-23T02:45:23;17.73;;;15.07;;
5219;SDS011;2629;50.768;7.308;2022-07-23T02:47:54;21.23;;;14.27;;
5219;SDS011;2629;50.768;7.308;2022-07-23T02:50:22;20.70;;;14.17;;
5219;SDS011;2629;50.768;7.308;2022-07-23T02:52:54;19.00;;;13.47;;
5219;SDS011;2629;50.768;7.308;2022-07-23T02:55:23;18.40;;;14.10;;
5219;SDS011;2629;50.768;7.308;2022-07-23T02:57:52;26.37;;;16.30;;
5219;SDS011;2629;50.768;7.308;2022-07-23T03:00:20;22.27;;;14.30;;
5219;SDS011;2629;50.768;7.308;2022-07-23T03:02:48;24.70;;;15.20;;
5219;SDS011;2629;50.768;7.308;2022-07-23T03:05:18;22.90;;;14.37;;
5219;SDS011;2629;50.768;7.308;2022-07-23T03:07:46;23.40;;;15.87;;
5219;SDS011;2629;50.768;7.308;2022-07-23T03:10:14;20.20;;;14.73;;
5219;SDS011;2629;50.768;7.308;2022-07-23T03:12:43;22.37;;;15.20;;
5219;SDS011;2629;50.768;7.308;2022-07-23T03:15:11;21.30;;;14.80;;
5219;SDS011;2629;50.768;7.308;2022-07-23T03:17:40;20.40;;;14.80;;
5219;SDS011;2629;50.768;7.308;2022-07-23T03:20:09;20.00;;;15.07;;
5219;SDS011;2629;50.768;7.308;2022-07-23T03:22:39;18.93;;;15.40;;
5219;SDS011;2629;50.768;7.308;2022-07-23T03:25:08;18.80;;;13.87;;
5219;SDS011;2629;50.768;7.308;2022-07-23T03:27:36;21.80;;;15.40;;
5219;SDS011;2629;50.768;7.308;2022-07-23T03:30:05;21.57;;;16.00;;
5219;SDS011;2629;50.768;7.308;2022-07-23T03:32:34;22.03;;;16.50;;
5219;SDS011;2629;50.768;7.308;2022-07-23T03:35:03;25.20;;;16.07;;
5219;SDS011;2629;50.768;7.308;2022-07-23T03:37:33;20.87;;;15.97;;
5219;SDS011;2629;50.768;7.308;2022-07-23T03:40:03;17.70;;;14.73;;
5219;SDS011;2629;50.768;7.308;2022-07-23T03:42:32;23.40;;;16.57;;
5219;SDS011;2629;50.768;7.308;2022-07-23T03:45:02;27.10;;;16.60;;
5219;SDS011;2629;50.768;7.308;2022-07-23T03:47:31;23.70;;;15.47;;
5219;SDS011;2629;50.768;7.308;2022-07-23T03:49:59;21.00;;;15.30;;
5219;SDS011;2629;50.768;7.308;2022-07-23T03:52:27;22.23;;;15.57;;
5219;SDS011;2629;50.768;7.308;2022-07-23T03:54:56;20.90;;;15.13;;
5219;SDS011;2629;50.768;7.308;2022-07-23T03:57:25;24.87;;;16.00;;
5219;SDS011;2629;50.768;7.308;2022-07-23T03:59:53;24.40;;;17.00;;
5219;SDS011;2629;50.768;7.308;2022-07-23T04:02:22;22.57;;;16.50;;
5219;SDS011;2629;50.768;7.308;2022-07-23T04:04:50;21.37;;;14.83;;
5219;SDS011;2629;50.768;7.308;2022-07-23T04:07:18;23.83;;;16.20;;
5219;SDS011;2629;50.768;7.308;2022-07-23T04:09:46;21.80;;;15.07;;
5219;SDS011;2629;50.768;7.308;2022-07-23T04:12:14;16.97;;;13.50;;
5219;SDS011;2629;50.768;7.308;2022-07-23T04:14:44;28.67;;;14.43;;
5219;SDS011;2629;50.768;7.308;2022-07-23T04:17:13;28.50;;;16.70;;
5219;SDS011;2629;50.768;7.308;2022-07-23T04:19:42;22.03;;;16.83;;
5219;SDS011;2629;50.768;7.308;2022-07-23T04:22:14;26.97;;;16.93;;
5219;SDS011;2629;50.768;7.308;2022-07-23T04:24:42;24.50;;;16.70;;
5219;SDS011;2629;50.768;7.308;2022-07-23T04:27:10;22.70;;;15.00;;
5219;SDS011;2629;50.768;7.308;2022-07-23T04:29:39;23.83;;;16.03;;
5219;SDS011;2629;50.768;7.308;2022-07-23T04:32:08;19.67;;;13.90;;
5219;SDS011;2629;50.768;7.308;2022-07-23T04:34:36;20.30;;;13.90;;
5219;SDS011;2629;50.768;7.308;2022-07-23T04:37:05;23.80;;;14.67;;
5219;SDS011;2629;50.768;7.308;2022-07-23T04:39:34;20.50;;;15.07;;
5219;SDS011;2629;50.768;7.308;2022-07-23T04:42:03;22.43;;;14.97;;
5219;SDS011;2629;50.768;7.308;2022-07-23T04:44:31;27.60;;;15.97;;
5219;SDS011;2629;50.768;7.308;2022-07-23T04:47:01;21.50;;;15.03;;
5219;SDS011;2629;50.768;7.308;2022-07-23T04:49:31;22.53;;;15.93;;
5219;SDS011;2629;50.768;7.308;2022-07-23T04:51:59;23.70;;;17.30;;
5219;SDS011;2629;50.768;7.308;2022-07-23T04:54:28;21.07;;;15.17;;
5219;SDS011;2629;50.768;7.308;2022-07-23T04:56:56;25.23;;;17.70;;
5219;SDS011;2629;50.768;7.308;2022-07-23T04:59:24;21.57;;;15.80;;
5219;SDS011;2629;50.768;7.308;2022-07-23T05:01:57;22.57;;;15.93;;
5219;SDS011;2629;50.768;7.308;2022-07-23T05:04:26;22.40;;;14.87;;
5219;SDS011;2629;50.768;7.308;2022-07-23T05:06:56;21.13;;;16.27;;
5219;SDS011;2629;50.768;7.308;2022-07-23T05:09:25;33.57;;;18.00;;
5219;SDS011;2629;50.768;7.308;2022-07-23T05:11:53;28.83;;;19.27;;
5219;SDS011;2629;50.768;7.308;2022-07-23T05:14:22;27.27;;;18.20;;
5219;SDS011;2629;50.768;7.308;2022-07-23T05:16:50;31.23;;;19.67;;
5219;SDS011;2629;50.768;7.308;2022-07-23T05:19:22;25.77;;;18.20;;
5219;SDS011;2629;50.768;7.308;2022-07-23T05:21:50;25.03;;;19.07;;
5219;SDS011;2629;50.768;7.308;2022-07-23T05:24:21;28.90;;;19.13;;
5219;SDS011;2629;50.768;7.308;2022-07-23T05:26:50;33.00;;;20.40;;
5219;SDS011;2629;50.768;7.308;2022-07-23T05:29:18;32.73;;;19.50;;
5219;SDS011;2629;50.768;7.308;2022-07-23T05:31:46;31.37;;;20.00;;
5219;SDS011;2629;50.768;7.308;2022-07-23T05:34:15;26.83;;;18.80;;
5219;SDS011;2629;50.768;7.308;2022-07-23T05:36:45;30.43;;;20.30;;
5219;SDS011;2629;50.768;7.308;2022-07-23T05:39:13;24.77;;;17.90;;
5219;SDS011;2629;50.768;7.308;2022-07-23T05:41:43;28.50;;;19.63;;
5219;SDS011;2629;50.768;7.308;2022-07-23T05:44:12;29.47;;;19.97;;
5219;SDS011;2629;50.768;7.308;2022-07-23T05:46:43;32.87;;;19.90;;
5219;SDS011;2629;50.768;7.308;2022-07-23T05:49:17;26.67;;;18.90;;
5219;SDS011;2629;50.768;7.308;2022-07-23T05:52:09;27.90;;;18.30;;
5219;SDS011;2629;50.768;7.308;2022-07-23T05:54:57;25.27;;;17.53;;
5219;SDS011;2629;50.768;7.308;2022-07-23T05:57:26;28.77;;;19.00;;
5219;SDS011;2629;50.768;7.308;2022-07-23T05:59:54;27.30;;;17.87;;
5219;SDS011;2629;50.768;7.308;2022-07-23T06:02:22;26.17;;;17.10;;
5219;SDS011;2629;50.768;7.308;2022-07-23T06:04:51;24.73;;;16.90;;
5219;SDS011;2629;50.768;7.308;2022-07-23T06:07:28;25.83;;;16.73;;
5219;SDS011;2629;50.768;7.308;2022-07-23T06:09:56;24.07;;;17.60;;
5219;SDS011;2629;50.768;7.308;2022-07-23T06:12:24;25.83;;;16.50;;
5219;SDS011;2629;50.768;7.308;2022-07-23T06:14:55;24.70;;;16.87;;
5219;SDS011;2629;50.768;7.308;2022-07-23T06:17:25;25.40;;;16.60;;
5219;SDS011;2629;50.768;7.308;2022-07-23T06:19:54;25.80;;;16.50;;
5219;SDS011;2629;50.768;7.308;2022-07-23T06:22:23;23.33;;;16.07;;
5219;SDS011;2629;50.768;7.308;2022-07-23T06:24:51;29.30;;;18.37;;
5219;SDS011;2629;50.768;7.308;2022-07-23T06:27:20;26.27;;;16.33;;
5219;SDS011;2629;50.768;7.308;2022-07-23T06:29:52;24.23;;;15.67;;
5219;SDS011;2629;50.768;7.308;2022-07-23T06:32:21;23.13;;;16.10;;
5219;SDS011;2629;50.768;7.308;2022-07-23T06:34:49;28.87;;;17.50;;
5219;SDS011;2629;50.768;7.308;2022-07-23T06:37:20;25.23;;;15.77;;
5219;SDS011;2629;50.768;7.308;2022-07-23T06:39:48;23.87;;;16.40;;
5219;SDS011;2629;50.768;7.308;2022-07-23T06:42:16;26.03;;;15.60;;
5219;SDS011;2629;50.768;7.308;2022-07-23T06:44:45;26.20;;;16.27;;
5219;SDS011;2629;50.768;7.308;2022-07-23T06:47:16;23.70;;;15.70;;
5219;SDS011;2629;50.768;7.308;2022-07-23T06:49:45;23.90;;;15.83;;
5219;SDS011;2629;50.768;7.308;2022-07-23T06:52:13;24.90;;;14.77;;
5219;SDS011;2629;50.768;7.308;2022-07-23T06:54:42;20.63;;;14.60;;
5219;SDS011;2629;50.768;7.308;2022-07-23T06:57:10;22.70;;;14.30;;
5219;SDS011;2629;50.768;7.308;2022-07-23T06:59:38;19.70;;;12.80;;
5219;SDS011;2629;50.768;7.308;2022-07-23T07:02:08;19.93;;;12.23;;
5219;SDS011;2629;50.768;7.308;2022-07-23T07:04:36;19.77;;;11.87;;
5219;SDS011;2629;50.768;7.308;2022-07-23T07:07:06;14.10;;;10.07;;
5219;SDS011;2629;50.768;7.308;2022-07-23T07:09:34;14.43;;;10.07;;
5219;SDS011;2629;50.768;7.308;2022-07-23T07:12:02;16.20;;;10.90;;
5219;SDS011;2629;50.768;7.308;2022-07-23T07:14:31;15.43;;;10.47;;
5219;SDS011;2629;50.768;7.308;2022-07-23T07:16:59;13.53;;;9.57;;
5219;SDS011;2629;50.768;7.308;2022-07-23T07:19:27;15.30;;;10.00;;
5219;SDS011;2629;50.768;7.308;2022-07-23T07:21:56;15.50;;;10.13;;
5219;SDS011;2629;50.768;7.308;2022-07-23T07:24:25;12.90;;;8.20;;
5219;SDS011;2629;50.768;7.308;2022-07-23T07:26:58;13.10;;;8.67;;
5219;SDS011;2629;50.768;7.308;2022-07-23T07:29:26;14.83;;;10.07;;
5219;SDS011;2629;50.768;7.308;2022-07-23T07:31:54;12.20;;;8.80;;
5219;SDS011;2629;50.768;7.308;2022-07-23T07:34:23;11.53;;;8.10;;
5219;SDS011;2629;50.768;7.308;2022-07-23T07:36:51;11.23;;;6.73;;
5219;SDS011;2629;50.768;7.308;2022-07-23T07:39:19;11.07;;;8.10;;
5219;SDS011;2629;50.768;7.308;2022-07-23T07:41:48;12.20;;;7.37;;
5219;SDS011;2629;50.768;7.308;2022-07-23T07:44:16;9.73;;;7.03;;
5219;SDS011;2629;50.768;7.308;2022-07-23T07:46:45;12.33;;;7.53;;
5219;SDS011;2629;50.768;7.308;2022-07-23T07:49:13;10.70;;;7.23;;
5219;SDS011;2629;50.768;7.308;2022-07-23T07:51:42;10.80;;;7.30;;
5219;SDS011;2629;50.768;7.308;2022-07-23T07:54:10;9.93;;;7.37;;
5219;SDS011;2629;50.768;7.308;2022-07-23T07:56:39;9.83;;;7.23;;
5219;SDS011;2629;50.768;7.308;2022-07-23T07:59:09;12.03;;;6.50;;
5219;SDS011;2629;50.768;7.308;2022-07-23T08:01:37;10.73;;;7.10;;
5219;SDS011;2629;50.768;7.308;2022-07-23T08:04:06;8.20;;;6.00;;
5219;SDS011;2629;50.768;7.308;2022-07-23T08:06:34;12.03;;;6.53;;
5219;SDS011;2629;50.768;7.308;2022-07-23T08:09:02;11.00;;;6.33;;
5219;SDS011;2629;50.768;7.308;2022-07-23T08:11:30;8.70;;;5.27;;
5219;SDS011;2629;50.768;7.308;2022-07-23T08:13:58;9.40;;;6.40;;
5219;SDS011;2629;50.768;7.308;2022-07-23T08:16:28;9.73;;;5.97;;
5219;SDS011;2629;50.768;7.308;2022-07-23T08:19:06;7.43;;;5.50;;
5219;SDS011;2629;50.768;7.308;2022-07-23T08:21:34;13.30;;;5.90;;
5219;SDS011;2629;50.768;7.308;2022-07-23T08:24:02;10.70;;;5.90;;
5219;SDS011;2629;50.768;7.308;2022-07-23T08:26:31;8.47;;;5.87;;
5219;SDS011;2629;50.768;7.308;2022-07-23T08:28:59;8.97;;;6.37;;
5219;SDS011;2629;50.768;7.308;2022-07-23T08:31:29;8.30;;;5.80;;
5219;SDS011;2629;50.768;7.308;2022-07-23T08:33:59;10.00;;;5.63;;
5219;SDS011;2629;50.768;7.308;2022-07-23T08:36:29;7.37;;;4.73;;
5219;SDS011;2629;50.768;7.308;2022-07-23T08:38:58;11.23;;;5.53;;
5219;SDS011;2629;50.768;7.308;2022-07-23T08:41:29;10.13;;;6.03;;
5219;SDS011;2629;50.768;7.308;2022-07-23T08:43:57;9.07;;;5.40;;
5219;SDS011;2629;50.768;7.308;2022-07-23T08:46:29;7.40;;;4.53;;
5219;SDS011;2629;50.768;7.308;2022-07-23T08:48:57;8.27;;;5.70;;
5219;SDS011;2629;50.768;7.308;2022-07-23T08:51:26;8.30;;;5.90;;
5219;SDS011;2629;50.768;7.308;2022-07-23T08:53:55;6.47;;;4.63;;
5219;SDS011;2629;50.768;7.308;2022-07-23T08:56:24;10.17;;;5.23;;
5219;SDS011;2629;50.768;7.308;2022-07-23T08:58:53;6.63;;;4.70;;
5219;SDS011;2629;50.768;7.308;2022-07-23T09:01:21;8.63;;;4.87;;
5219;SDS011;2629;50.768;7.308;2022-07-23T09:03:51;7.60;;;4.27;;
5219;SDS011;2629;50.768;7.308;2022-07-23T09:06:19;9.63;;;5.80;;
5219;SDS011;2629;50.768;7.308;2022-07-23T09:08:47;7.63;;;5.27;;
5219;SDS011;2629;50.768;7.308;2022-07-23T09:11:16;8.10;;;5.50;;
5219;SDS011;2629;50.768;7.308;2022-07-23T09:13:45;7.90;;;4.70;;
5219;SDS011;2629;50.768;7.308;2022-07-23T09:16:16;6.20;;;5.17;;
5219;SDS011;2629;50.768;7.308;2022-07-23T09:18:46;7.97;;;4.90;;
5219;SDS011;2629;50.768;7.308;2022-07-23T09:21:19;8.07;;;5.10;;
5219;SDS011;2629;50.768;7.308;2022-07-23T09:23:54;7.20;;;4.90;;
5219;SDS011;2629;50.768;7.308;2022-07-23T09:26:30;8.13;;;5.13;;
5219;SDS011;2629;50.768;7.308;2022-07-23T09:29:04;9.37;;;5.67;;
5219;SDS011;2629;50.768;7.308;2022-07-23T09:31:42;8.07;;;6.27;;
5219;SDS011;2629;50.768;7.308;2022-07-23T09:34:13;7.60;;;5.23;;
5219;SDS011;2629;50.768;7.308;2022-07-23T09:36:44;5.80;;;4.53;;
5219;SDS011;2629;50.768;7.308;2022-07-23T09:39:13;6.43;;;4.00;;
5219;SDS011;2629;50.768;7.308;2022-07-23T09:41:45;9.47;;;4.50;;
5219;SDS011;2629;50.768;7.308;2022-07-23T09:44:14;6.60;;;4.50;;
5219;SDS011;2629;50.768;7.308;2022-07-23T09:46:44;6.90;;;4.90;;
5219;SDS011;2629;50.768;7.308;2022-07-23T09:49:14;7.77;;;4.93;;
5219;SDS011;2629;50.768;7.308;2022-07-23T09:51:45;6.70;;;4.07;;
5219;SDS011;2629;50.768;7.308;2022-07-23T09:57:06;6.27;;;4.53;;
5219;SDS011;2629;50.768;7.308;2022-07-23T09:59:39;7.67;;;3.93;;
5219;SDS011;2629;50.768;7.308;2022-07-23T10:02:09;5.37;;;3.87;;
5219;SDS011;2629;50.768;7.308;2022-07-23T10:04:55;5.70;;;3.60;;
5219;SDS011;2629;50.768;7.308;2022-07-23T10:07:43;5.80;;;4.00;;
5219;SDS011;2629;50.768;7.308;2022-07-23T10:10:39;6.40;;;4.00;;
5219;SDS011;2629;50.768;7.308;2022-07-23T10:13:28;6.43;;;4.70;;
5219;SDS011;2629;50.768;7.308;2022-07-23T10:16:44;6.97;;;4.13;;
5219;SDS011;2629;50.768;7.308;2022-07-23T10:19:13;7.13;;;3.70;;
5219;SDS011;2629;50.768;7.308;2022-07-23T10:21:42;9.07;;;4.60;;
5219;SDS011;2629;50.768;7.308;2022-07-23T10:24:18;8.00;;;4.70;;
5219;SDS011;2629;50.768;7.308;2022-07-23T10:26:54;6.27;;;4.30;;
5219;SDS011;2629;50.768;7.308;2022-07-23T10:29:36;6.57;;;3.90;;
5219;SDS011;2629;50.768;7.308;2022-07-23T10:32:15;5.30;;;3.73;;
5219;SDS011;2629;50.768;7.308;2022-07-23T10:34:51;6.93;;;3.93;;
5219;SDS011;2629;50.768;7.308;2022-07-23T10:37:24;8.17;;;4.37;;
5219;SDS011;2629;50.768;7.308;2022-07-23T10:40:11;4.80;;;3.50;;
5219;SDS011;2629;50.768;7.308;2022-07-23T10:42:41;5.03;;;3.00;;
5219;SDS011;2629;50.768;7.308;2022-07-23T10:45:22;3.70;;;2.77;;
5219;SDS011;2629;50.768;7.308;2022-07-23T10:47:51;9.33;;;3.10;;
5219;SDS011;2629;50.768;7.308;2022-07-23T10:50:21;5.40;;;2.93;;
5219;SDS011;2629;50.768;7.308;2022-07-23T10:55:48;6.53;;;4.00;;
5219;SDS011;2629;50.768;7.308;2022-07-23T10:58:19;5.83;;;3.93;;
5219;SDS011;2629;50.768;7.308;2022-07-23T11:00:48;5.53;;;3.40;;
5219;SDS011;2629;50.768;7.308;2022-07-23T11:03:27;4.17;;;2.70;;
5219;SDS011;2629;50.768;7.308;2022-07-23T11:05:58;5.97;;;2.90;;
5219;SDS011;2629;50.768;7.308;2022-07-23T11:08:28;3.77;;;2.90;;
5219;SDS011;2629;50.768;7.308;2022-07-23T11:11:08;5.00;;;4.20;;
5219;SDS011;2629;50.768;7.308;2022-07-23T11:13:39;6.10;;;3.60;;
5219;SDS011;2629;50.768;7.308;2022-07-23T11:16:13;4.90;;;3.30;;
5219;SDS011;2629;50.768;7.308;2022-07-23T11:18:53;7.23;;;3.70;;
5219;SDS011;2629;50.768;7.308;2022-07-23T11:24:25;4.73;;;3.13;;
5219;SDS011;2629;50.768;7.308;2022-07-23T11:26:59;4.40;;;3.50;;
5219;SDS011;2629;50.768;7.308;2022-07-23T11:29:41;4.07;;;3.43;;
5219;SDS011;2629;50.768;7.308;2022-07-23T11:35:23;4.40;;;3.27;;
5219;SDS011;2629;50.768;7.308;2022-07-23T11:37:54;5.50;;;3.17;;
5219;SDS011;2629;50.768;7.308;2022-07-23T11:40:31;6.10;;;3.47;;
5219;SDS011;2629;50.768;7.308;2022-07-23T11:43:02;4.23;;;2.63;;
5219;SDS011;2629;50.768;7.308;2022-07-23T11:45:32;5.27;;;2.37;;
5219;SDS011;2629;50.768;7.308;2022-07-23T11:48:06;3.77;;;3.13;;
5219;SDS011;2629;50.768;7.308;2022-07-23T11:50:36;6.00;;;3.30;;
5219;SDS011;2629;50.768;7.308;2022-07-23T11:53:04;5.10;;;4.00;;
5219;SDS011;2629;50.768;7.308;2022-07-23T11:55:32;5.23;;;3.00;;
5219;SDS011;2629;50.768;7.308;2022-07-23T11:58:02;5.23;;;3.10;;
5219;SDS011;2629;50.768;7.308;2022-07-23T12:00:30;4.97;;;3.50;;
5219;SDS011;2629;50.768;7.308;2022-07-23T12:03:06;4.47;;;3.40;;
5219;SDS011;2629;50.768;7.308;2022-07-23T12:05:35;5.00;;;3.17;;
5219;SDS011;2629;50.768;7.308;2022-07-23T12:08:05;11.57;;;3.57;;
5219;SDS011;2629;50.768;7.308;2022-07-23T12:10:35;5.37;;;3.30;;
5219;SDS011;2629;50.768;7.308;2022-07-23T12:13:07;4.77;;;3.00;;
5219;SDS011;2629;50.768;7.308;2022-07-23T12:15:38;3.93;;;2.90;;
5219;SDS011;2629;50.768;7.308;2022-07-23T12:18:09;6.10;;;3.60;;
5219;SDS011;2629;50.768;7.308;2022-07-23T12:20:39;9.03;;;3.87;;
5219;SDS011;2629;50.768;7.308;2022-07-23T12:23:09;4.93;;;3.03;;
5219;SDS011;2629;50.768;7.308;2022-07-23T12:25:39;4.37;;;3.20;;
5219;SDS011;2629;50.768;7.308;2022-07-23T12:28:11;4.73;;;3.40;;
5219;SDS011;2629;50.768;7.308;2022-07-23T12:30:40;5.47;;;3.50;;
5219;SDS011;2629;50.768;7.308;2022-07-23T12:33:10;5.47;;;4.67;;
5219;SDS011;2629;50.768;7.308;2022-07-23T12:35:41;4.23;;;3.63;;
5219;SDS011;2629;50.768;7.308;2022-07-23T12:38:12;4.43;;;3.73;;
5219;SDS011;2629;50.768;7.308;2022-07-23T12:40:42;6.83;;;4.10;;
5219;SDS011;2629;50.768;7.308;2022-07-23T12:43:18;5.40;;;3.80;;
5219;SDS011;2629;50.768;7.308;2022-07-23T12:45:48;5.07;;;3.73;;
5219;SDS011;2629;50.768;7.308;2022-07-23T12:48:19;6.63;;;4.10;;
5219;SDS011;2629;50.768;7.308;2022-07-23T12:50:50;6.47;;;4.30;;
5219;SDS011;2629;50.768;7.308;2022-07-23T12:53:20;5.87;;;5.17;;
5219;SDS011;2629;50.768;7.308;2022-07-23T12:55:50;7.90;;;5.17;;
5219;SDS011;2629;50.768;7.308;2022-07-23T12:58:45;6.70;;;5.00;;
5219;SDS011;2629;50.768;7.308;2022-07-23T13:01:28;5.40;;;4.10;;
5219;SDS011;2629;50.768;7.308;2022-07-23T13:04:03;7.20;;;4.80;;
5219;SDS011;2629;50.768;7.308;2022-07-23T13:06:39;9.00;;;5.20;;
5219;SDS011;2629;50.768;7.308;2022-07-23T13:09:10;5.60;;;4.23;;
5219;SDS011;2629;50.768;7.308;2022-07-23T13:11:40;7.17;;;4.30;;
5219;SDS011;2629;50.768;7.308;2022-07-23T13:14:09;7.20;;;4.67;;
5219;SDS011;2629;50.768;7.308;2022-07-23T13:16:38;5.57;;;4.90;;
5219;SDS011;2629;50.768;7.308;2022-07-23T13:19:06;9.80;;;4.90;;
5219;SDS011;2629;50.768;7.308;2022-07-23T13:21:37;7.23;;;5.47;;
5219;SDS011;2629;50.768;7.308;2022-07-23T13:24:06;6.33;;;5.33;;
5219;SDS011;2629;50.768;7.308;2022-07-23T13:26:35;5.47;;;4.90;;
5219;SDS011;2629;50.768;7.308;2022-07-23T13:29:04;7.40;;;4.70;;
5219;SDS011;2629;50.768;7.308;2022-07-23T13:31:37;5.20;;;4.70;;
5219;SDS011;2629;50.768;7.308;2022-07-23T13:34:06;5.43;;;4.73;;
5219;SDS011;2629;50.768;7.308;2022-07-23T13:36:35;7.20;;;4.82;;
5219;SDS011;2629;50.768;7.308;2022-07-23T13:39:03;8.18;;;5.35;;
5219;SDS011;2629;50.768;7.308;2022-07-23T13:41:35;5.93;;;5.30;;
5219;SDS011;2629;50.768;7.308;2022-07-23T13:44:04;8.60;;;5.88;;
5219;SDS011;2629;50.768;7.308;2022-07-23T13:46:33;7.10;;;4.28;;
5219;SDS011;2629;50.768;7.308;2022-07-23T13:49:03;9.82;;;5.00;;
5219;SDS011;2629;50.768;7.308;2022-07-23T13:51:32;6.78;;;4.97;;
5219;SDS011;2629;50.768;7.308;2022-07-23T13:54:00;8.30;;;4.70;;
5219;SDS011;2629;50.768;7.308;2022-07-23T13:56:29;5.70;;;4.47;;
5219;SDS011;2629;50.768;7.308;2022-07-23T13:58:57;5.22;;;4.43;;
5219;SDS011;2629;50.768;7.308;2022-07-23T14:01:25;6.13;;;4.47;;
5219;SDS011;2629;50.768;7.308;2022-07-23T14:04:00;6.72;;;4.50;;
5219;SDS011;2629;50.768;7.308;2022-07-23T14:06:29;7.18;;;5.28;;
5219;SDS011;2629;50.768;7.308;2022-07-23T14:08:59;6.72;;;4.75;;
5219;SDS011;2629;50.768;7.308;2022-07-23T14:11:27;6.20;;;4.70;;
5219;SDS011;2629;50.768;7.308;2022-07-23T14:13:57;7.05;;;5.15;;
5219;SDS011;2629;50.768;7.308;2022-07-23T14:16:27;5.30;;;4.70;;
5219;SDS011;2629;50.768;7.308;2022-07-23T14:18:55;5.68;;;5.07;;
5219;SDS011;2629;50.768;7.308;2022-07-23T14:21:23;8.07;;;5.00;;
5219;SDS011;2629;50.768;7.308;2022-07-23T14:23:53;7.72;;;5.97;;
5219;SDS011;2629;50.768;7.308;2022-07-23T14:26:21;6.43;;;4.68;;
5219;SDS011;2629;50.768;7.308;2022-07-23T14:28:49;6.10;;;5.47;;
5219;SDS011;2629;50.768;7.308;2022-07-23T14:31:18;8.00;;;5.63;;
5219;SDS011;2629;50.768;7.308;2022-07-23T14:33:49;6.47;;;5.78;;
5219;SDS011;2629;50.768;7.308;2022-07-23T14:36:17;8.70;;;5.43;;
5219;SDS011;2629;50.768;7.308;2022-07-23T14:38:46;7.35;;;6.53;;
5219;SDS011;2629;50.768;7.308;2022-07-23T14:41:15;5.75;;;5.15;;
5219;SDS011;2629;50.768;7.308;2022-07-23T14:43:43;7.10;;;6.00;;
5219;SDS011;2629;50.768;7.308;2022-07-23T14:46:12;7.85;;;6.20;;
5219;SDS011;2629;50.768;7.308;2022-07-23T14:48:40;7.05;;;5.07;;
5219;SDS011;2629;50.768;7.308;2022-07-23T14:51:08;6.47;;;5.38;;
5219;SDS011;2629;50.768;7.308;2022-07-23T14:53:37;7.57;;;5.60;;
5219;SDS011;2629;50.768;7.308;2022-07-23T14:56:05;7.68;;;5.00;;
5219;SDS011;2629;50.768;7.308;2022-07-23T14:58:34;10.48;;;6.25;;
5219;SDS011;2629;50.768;7.308;2022-07-23T15:01:03;7.93;;;6.15;;
5219;SDS011;2629;50.768;7.308;2022-07-23T15:03:31;8.07;;;4.60;;
5219;SDS011;2629;50.768;7.308;2022-07-23T15:06:01;6.72;;;4.82;;
5219;SDS011;2629;50.768;7.308;2022-07-23T15:08:29;5.65;;;5.05;;
5219;SDS011;2629;50.768;7.308;2022-07-23T15:10:57;5.93;;;4.97;;
5219;SDS011;2629;50.768;7.308;2022-07-23T15:13:26;8.90;;;5.10;;
5219;SDS011;2629;50.768;7.308;2022-07-23T15:15:55;5.78;;;4.45;;
5219;SDS011;2629;50.768;7.308;2022-07-23T15:18:23;6.10;;;4.88;;
5219;SDS011;2629;50.768;7.308;2022-07-23T15:20:51;5.35;;;4.78;;
5219;SDS011;2629;50.768;7.308;2022-07-23T15:23:19;7.43;;;4.70;;
5219;SDS011;2629;50.768;7.308;2022-07-23T15:25:47;7.72;;;4.93;;
5219;SDS011;2629;50.768;7.308;2022-07-23T15:28:17;6.22;;;4.57;;
5219;SDS011;2629;50.768;7.308;2022-07-23T15:30:47;8.00;;;4.38;;